This is the latest recevied weather packets stored in our database for station/object W8KHW. If no packets are shown the sender has not sent any weather packets the latest 10 day(s).
| Time | Temp. | Humidity | Pressure | Rain* | Wind** | Luminosity | Snow |
|---|---|---|---|---|---|---|---|
| 1778203081 | 8.89° C | 65% | 1014.3 hPa | 0 mm | - | - | - |
| 1778202581 | 9.44° C | 63% | 1014.3 hPa | 0 mm | - | - | - |
| 1778202081 | 9.44° C | 60% | 1014.4 hPa | 0 mm | - | - | - |
| 1778201581 | 10° C | 58% | 1014.3 hPa | 0 mm | - | - | - |
| 1778201081 | 10.56° C | 58% | 1014.3 hPa | 0 mm | - | - | - |
| 1778200581 | 11.11° C | 54% | 1014.3 hPa | 0 mm | - | - | - |
| 1778200080 | 11.67° C | 54% | 1014.3 hPa | 0 mm | - | - | - |
| 1778199581 | 12.22° C | 53% | 1014.3 hPa | 0 mm | - | - | - |
| 1778199080 | 12.78° C | 49% | 1013.8 hPa | 0 mm | - | - | - |
| 1778198580 | 12.78° C | 47% | 1013.8 hPa | 0 mm | - | - | - |
| 1778198080 | 13.33° C | 45% | 1013.7 hPa | 0 mm | - | - | - |
| 1778197580 | 13.33° C | 45% | 1013.9 hPa | 0 mm | - | - | - |
| 1778197079 | 14.44° C | 44% | 1013.6 hPa | 0 mm | - | - | - |
| 1778196579 | 15° C | 42% | 1013.7 hPa | 0 mm | - | - | - |
| 1778196079 | 15° C | 41% | 1013.8 hPa | 0 mm | - | - | - |
| 1778195579 | 14.44° C | 41% | 1013.6 hPa | 0 mm | - | - | - |
| 1778195079 | 14.44° C | 44% | 1013.8 hPa | 0 mm | - | - | - |
| 1778194579 | 14.44° C | 45% | 1013.7 hPa | 0 mm | - | - | - |
| 1778194078 | 13.89° C | 42% | 1013.9 hPa | 0 mm | - | - | - |
| 1778193578 | 14.44° C | 41% | 1013.8 hPa | 0 mm | - | - | - |
| 1778193078 | 15° C | 42% | 1014.1 hPa | 0 mm | - | - | - |
| 1778192578 | 15° C | 41% | 1013.9 hPa | 0 mm | - | - | - |
| 1778192078 | 13.89° C | 44% | 1014.2 hPa | 0 mm | - | - | - |
| 1778191577 | 13.89° C | 42% | 1014.2 hPa | 0 mm | - | - | - |
| 1778191077 | 15° C | 41% | 1013.8 hPa | 0 mm | - | - | - |
* Rain latest hour (hover to see other rain measurements)
** Current wind speed in m/s (hover to see current wind gust speed)